Time;durP1;ratioP1;P1;durP2;ratioP2;P2;SDS_P1;SDS_P2;PMS_P1;PMS_P2;Temp;Humidity;BMP_temperature;BMP_pressure;BME280_temperature;BME280_humidity;BME280_pressure;Samples;Min_cycle;Max_cycle;Signal;HPM_P1;HPM_P2
2022/10/09 00:01:09;;;;;;;17.40;10.63;;;;;;;11.41;88.99;98260.27;1829803;78;20904;-59
2022/10/09 00:03:37;;;;;;;15.80;10.00;;;;;;;11.38;88.84;98268.35;1835258;78;20909;-59
2022/10/09 00:06:05;;;;;;;13.22;9.70;;;;;;;11.33;88.82;98266.30;1832599;78;21010;-59
2022/10/09 00:08:34;;;;;;;13.50;9.63;;;;;;;11.28;88.79;98266.36;1836403;78;21139;-59
2022/10/09 00:11:08;;;;;;;13.90;9.58;;;;;;;11.23;88.85;98269.91;1828411;78;21402;-59
2022/10/09 00:13:36;;;;;;;12.68;10.05;;;;;;;11.16;88.94;98260.07;1805234;78;21829;-59
2022/10/09 00:16:08;;;;;;;13.78;9.90;;;;;;;11.10;89.30;98260.39;1823663;78;20968;-59
2022/10/09 00:18:35;;;;;;;13.90;10.08;;;;;;;11.08;89.44;98251.84;1825570;78;20928;-58
2022/10/09 00:21:02;;;;;;;15.20;10.55;;;;;;;11.04;89.51;98250.83;1806653;78;21109;-59
2022/10/09 00:23:31;;;;;;;15.10;10.38;;;;;;;10.92;89.92;98254.73;1810837;78;20900;-59
2022/10/09 00:25:59;;;;;;;10.98;8.78;;;;;;;10.87;90.59;98253.97;1823624;77;20924;-58
2022/10/09 00:28:28;;;;;;;15.60;9.45;;;;;;;10.84;90.67;98247.30;1817455;78;20915;-58
2022/10/09 00:30:56;;;;;;;12.18;9.33;;;;;;;10.78;90.76;98248.45;1828360;78;20972;-59
2022/10/09 00:33:22;;;;;;;18.23;10.82;;;;;;;10.73;91.08;98245.83;1813818;78;21872;-59
2022/10/09 00:35:49;;;;;;;13.43;10.03;;;;;;;10.69;91.21;98239.42;1822914;78;21043;-59
2022/10/09 00:38:16;;;;;;;17.32;10.78;;;;;;;10.67;91.38;98244.27;1805438;78;21002;-58
2022/10/09 00:40:43;;;;;;;15.00;9.93;;;;;;;10.66;91.47;98245.91;1819887;78;20991;-58
2022/10/09 00:43:14;;;;;;;12.63;10.28;;;;;;;10.62;91.68;98241.64;1834044;78;21616;-58
2022/10/09 00:45:46;;;;;;;15.32;9.85;;;;;;;10.56;91.87;98240.11;1826277;77;21080;-59
2022/10/09 00:48:12;;;;;;;15.85;9.98;;;;;;;10.52;92.23;98238.28;1808914;78;20994;-59
2022/10/09 00:50:46;;;;;;;14.98;10.15;;;;;;;10.50;92.70;98237.23;1823849;78;20945;-58
2022/10/09 00:53:15;;;;;;;15.40;10.10;;;;;;;10.53;92.96;98237.98;1815237;78;20953;-58
2022/10/09 00:55:43;;;;;;;14.53;9.90;;;;;;;10.54;93.28;98236.92;1807677;78;20853;-58
2022/10/09 00:58:11;;;;;;;13.83;9.68;;;;;;;10.53;93.32;98229.95;1824166;78;21039;-58
2022/10/09 01:00:39;;;;;;;14.35;9.63;;;;;;;10.51;93.58;98233.46;1804608;78;20809;-58
2022/10/09 01:03:06;;;;;;;14.35;10.03;;;;;;;10.51;93.79;98228.64;1820128;78;20916;-59
2022/10/09 01:06:07;;;;;;;16.55;10.00;;;;;;;10.57;94.61;98228.86;1816043;78;21474;-59
2022/10/09 01:08:38;;;;;;;14.38;10.60;;;;;;;10.61;94.75;98232.03;1814557;78;20912;-58
2022/10/09 01:11:39;;;;;;;14.63;9.35;;;;;;;10.67;95.05;98233.55;1818015;78;21668;-59
2022/10/09 01:14:21;;;;;;;19.70;9.53;;;;;;;10.73;94.79;98232.97;1808734;77;20983;-59
2022/10/09 01:17:08;;;;;;;14.70;9.30;;;;;;;10.78;95.73;98240.95;1816010;78;20888;-58
2022/10/09 01:19:56;;;;;;;14.43;10.15;;;;;;;10.99;96.64;98237.76;1812926;78;21435;-57
2022/10/09 01:22:50;;;;;;;15.05;9.53;;;;;;;11.26;97.34;98227.75;1822777;78;20978;-59
2022/10/09 01:25:37;;;;;;;15.48;10.53;;;;;;;11.57;97.08;98233.48;1808995;77;21438;-57
2022/10/09 01:28:05;;;;;;;15.93;10.48;;;;;;;11.78;96.59;98229.45;1825625;78;21448;-58
2022/10/09 01:30:32;;;;;;;19.50;9.70;;;;;;;11.94;96.05;98236.16;1819030;78;20875;-59
2022/10/09 01:35:35;;;;;;;15.68;10.30;;;;;;;12.20;95.16;98237.91;1812263;77;20875;-58
2022/10/09 01:38:01;;;;;;;15.95;10.38;;;;;;;12.30;94.54;98237.19;1829159;78;21104;-59
2022/10/09 01:40:28;;;;;;;12.20;10.13;;;;;;;12.39;94.04;98234.60;1820644;78;20913;-58
2022/10/09 01:42:55;;;;;;;15.65;9.90;;;;;;;12.47;93.32;98235.81;1807681;78;20913;-58
2022/10/09 01:45:22;;;;;;;12.33;9.80;;;;;;;12.55;92.49;98236.48;1804831;78;20892;-59
2022/10/09 01:47:49;;;;;;;12.75;9.28;;;;;;;12.60;92.34;98240.43;1811695;78;20959;-58
2022/10/09 01:50:25;;;;;;;15.43;10.18;;;;;;;12.64;92.11;98244.91;1823743;78;21103;-57
2022/10/09 01:53:05;;;;;;;15.60;10.25;;;;;;;12.68;91.66;98250.47;1832539;78;20960;-59
2022/10/09 01:55:43;;;;;;;15.30;10.68;;;;;;;12.72;91.34;98254.16;1826151;78;20920;-59
2022/10/09 01:58:30;;;;;;;15.10;9.98;;;;;;;12.75;91.03;98261.63;1834643;78;20889;-59
2022/10/09 02:01:14;;;;;;;13.30;9.75;;;;;;;12.78;90.76;98250.30;1821504;78;20867;-59
2022/10/09 02:03:42;;;;;;;14.35;9.65;;;;;;;12.77;90.56;98267.50;1804986;78;21235;-60
2022/10/09 02:06:11;;;;;;;14.20;10.00;;;;;;;12.78;90.34;98267.22;1810159;78;21364;-59
2022/10/09 02:08:39;;;;;;;16.35;10.38;;;;;;;12.80;90.36;98270.95;1828310;78;21047;-58
2022/10/09 02:11:09;;;;;;;14.83;10.23;;;;;;;12.78;90.32;98269.11;1827923;78;21530;-58
2022/10/09 02:13:37;;;;;;;12.90;9.15;;;;;;;12.78;90.31;98263.73;1793434;77;20941;-57
2022/10/09 02:16:22;;;;;;;13.38;9.58;;;;;;;12.78;90.41;98269.11;1824217;78;21023;-59
2022/10/09 02:19:01;;;;;;;15.20;10.10;;;;;;;12.78;90.54;98270.45;1832079;77;21469;-59
2022/10/09 02:21:39;;;;;;;12.75;10.23;;;;;;;12.77;90.59;98279.59;1791957;78;20852;-59
2022/10/09 02:24:08;;;;;;;14.47;10.08;;;;;;;12.75;90.65;98276.41;1820340;78;20885;-58
2022/10/09 02:26:34;;;;;;;14.53;9.70;;;;;;;12.75;90.74;98281.25;1816194;78;20915;-57
2022/10/09 02:29:02;;;;;;;16.12;10.25;;;;;;;12.75;90.93;98276.41;1814838;78;21099;-59
2022/10/09 02:31:31;;;;;;;16.00;9.93;;;;;;;12.73;91.11;98277.27;1814336;77;20861;-59
2022/10/09 02:34:08;;;;;;;17.65;10.90;;;;;;;12.74;91.24;98276.18;1804821;78;20907;-58
2022/10/09 02:36:35;;;;;;;12.98;9.83;;;;;;;12.70;91.46;98271.13;1812437;78;20838;-58
2022/10/09 02:39:02;;;;;;;16.60;10.20;;;;;;;12.68;91.62;98270.63;1822770;78;20968;-59
2022/10/09 02:41:29;;;;;;;13.18;10.10;;;;;;;12.67;91.86;98266.37;1827858;78;21077;-58
2022/10/09 02:43:57;;;;;;;18.17;11.45;;;;;;;12.68;91.89;98268.75;1827875;78;20909;-59
2022/10/09 02:46:24;;;;;;;15.13;11.00;;;;;;;12.67;91.96;98271.17;1827754;78;20933;-58
2022/10/09 02:48:51;;;;;;;16.00;10.23;;;;;;;12.66;92.21;98272.82;1806436;78;20875;-59
2022/10/09 02:51:18;;;;;;;16.65;10.60;;;;;;;12.66;92.31;98271.48;1812330;78;20949;-58
2022/10/09 02:53:46;;;;;;;19.67;11.50;;;;;;;12.64;92.46;98281.73;1817619;78;21066;-59
2022/10/09 02:56:12;;;;;;;19.17;11.65;;;;;;;12.61;92.96;98285.00;1808267;78;21095;-58
2022/10/09 02:58:39;;;;;;;13.60;11.70;;;;;;;12.60;93.39;98294.94;1825851;78;21045;-58
2022/10/09 03:01:06;;;;;;;14.35;10.75;;;;;;;12.60;93.76;98296.86;1817342;78;21436;-58
2022/10/09 03:03:33;;;;;;;14.60;10.23;;;;;;;12.62;93.91;98302.73;1819268;78;20864;-59
2022/10/09 03:06:08;;;;;;;13.98;11.30;;;;;;;12.61;94.00;98304.61;1805808;78;21196;-57
2022/10/09 03:08:38;;;;;;;15.45;11.38;;;;;;;12.61;94.14;98307.84;1806059;77;20959;-59
2022/10/09 03:11:05;;;;;;;18.10;12.47;;;;;;;12.62;94.29;98312.14;1817875;78;20995;-58
2022/10/09 03:13:32;;;;;;;19.40;12.30;;;;;;;12.61;94.36;98322.63;1825049;78;20921;-59
2022/10/09 03:16:05;;;;;;;14.07;11.22;;;;;;;12.59;94.48;98318.09;1825938;78;21011;-58
2022/10/09 03:18:32;;;;;;;16.80;11.28;;;;;;;12.57;94.69;98318.40;1820235;78;21206;-59
2022/10/09 03:20:59;;;;;;;17.20;11.88;;;;;;;12.54;94.91;98316.29;1822833;78;20887;-58
2022/10/09 03:23:26;;;;;;;17.65;12.33;;;;;;;12.54;95.37;98318.17;1817155;78;20946;-58
2022/10/09 03:25:59;;;;;;;14.18;11.18;;;;;;;12.52;95.32;98309.08;1822089;78;21498;-59
2022/10/09 03:28:25;;;;;;;17.98;11.63;;;;;;;12.51;95.43;98308.00;1812196;78;20956;-57
2022/10/09 03:30:52;;;;;;;18.90;11.70;;;;;;;12.51;95.56;98298.06;1825547;78;21393;-58
2022/10/09 03:33:19;;;;;;;15.48;12.95;;;;;;;12.54;95.73;98293.45;1819800;78;20885;-59
2022/10/09 03:35:47;;;;;;;17.98;12.30;;;;;;;12.58;95.96;98296.33;1824012;78;20885;-58
2022/10/09 03:38:14;;;;;;;20.17;12.47;;;;;;;12.61;95.97;98303.27;1819737;78;21550;-60
2022/10/09 03:40:41;;;;;;;19.60;13.22;;;;;;;12.59;96.03;98309.48;1814086;78;20881;-59
2022/10/09 03:43:08;;;;;;;20.37;11.75;;;;;;;12.60;96.12;98304.92;1824333;78;21230;-58
2022/10/09 03:45:40;;;;;;;15.70;11.68;;;;;;;12.58;96.09;98287.73;1805611;78;20975;-59
2022/10/09 03:48:10;;;;;;;23.22;13.15;;;;;;;12.59;96.15;98299.28;1788172;79;20956;-59
2022/10/09 03:50:38;;;;;;;15.20;12.65;;;;;;;12.58;96.26;98308.42;1815136;78;21453;-57
2022/10/09 03:53:06;;;;;;;16.40;12.00;;;;;;;12.54;96.35;98314.95;1804707;78;20907;-58
2022/10/09 03:55:33;;;;;;;16.57;13.13;;;;;;;12.50;96.31;98318.52;1821522;78;21216;-59
2022/10/09 03:58:00;;;;;;;17.02;12.40;;;;;;;12.49;96.47;98319.59;1823932;78;20892;-58
2022/10/09 04:00:26;;;;;;;20.32;13.62;;;;;;;12.47;96.61;98319.91;1823699;78;20914;-58
2022/10/09 04:02:53;;;;;;;16.55;12.45;;;;;;;12.47;96.71;98322.59;1825928;78;21032;-58
2022/10/09 04:05:19;;;;;;;18.52;12.90;;;;;;;12.45;96.87;98329.34;1828247;78;20849;-59
2022/10/09 04:07:46;;;;;;;15.63;12.98;;;;;;;12.39;96.99;98325.16;1820545;78;21215;-59
2022/10/09 04:10:13;;;;;;;20.02;12.63;;;;;;;12.38;97.21;98331.61;1816703;78;21101;-59
2022/10/09 04:12:42;;;;;;;19.07;13.55;;;;;;;12.35;97.38;98329.77;1821042;78;20947;-59
2022/10/09 04:15:10;;;;;;;17.73;13.30;;;;;;;12.34;97.42;98326.81;1810692;78;20943;-58
2022/10/09 04:17:36;;;;;;;18.35;13.30;;;;;;;12.33;97.54;98329.80;1805209;78;20828;-59
2022/10/09 04:20:04;;;;;;;15.23;13.22;;;;;;;12.32;97.53;98336.25;1824393;77;21381;-58
2022/10/09 04:22:30;;;;;;;22.07;12.15;;;;;;;12.32;97.52;98341.63;1827186;78;20889;-58
2022/10/09 04:24:57;;;;;;;14.50;12.00;;;;;;;12.32;97.40;98337.59;1815997;77;20937;-58
2022/10/09 04:27:24;;;;;;;17.55;12.58;;;;;;;12.32;97.12;98342.43;1824044;78;20960;-57
2022/10/09 04:29:50;;;;;;;15.50;12.03;;;;;;;12.31;96.92;98340.85;1824190;78;21046;-59
2022/10/09 04:32:17;;;;;;;14.78;11.75;;;;;;;12.32;96.72;98350.48;1812848;77;21937;-59
2022/10/09 04:34:44;;;;;;;12.58;11.28;;;;;;;12.34;96.25;98350.99;1816369;78;20830;-59
2022/10/09 04:37:10;;;;;;;14.95;11.30;;;;;;;12.35;95.78;98347.23;1811942;78;21299;-58
2022/10/09 04:39:39;;;;;;;16.42;12.05;;;;;;;12.34;95.80;98356.36;1811879;77;20832;-59
2022/10/09 04:42:06;;;;;;;17.98;12.93;;;;;;;12.35;95.83;98358.51;1814427;78;20993;-58
2022/10/09 04:44:33;;;;;;;17.48;12.13;;;;;;;12.34;95.82;98363.64;1821737;78;21231;-59
2022/10/09 04:47:00;;;;;;;14.10;11.25;;;;;;;12.33;95.76;98368.75;1804609;78;20991;-57
2022/10/09 04:49:27;;;;;;;17.30;12.20;;;;;;;12.30;95.78;98370.13;1821076;78;20912;-60
2022/10/09 04:51:53;;;;;;;17.17;12.20;;;;;;;12.27;95.74;98361.30;1822813;78;21077;-58
2022/10/09 04:54:20;;;;;;;17.02;12.60;;;;;;;12.26;95.86;98366.44;1804688;78;20955;-59
2022/10/09 04:56:46;;;;;;;14.90;11.22;;;;;;;12.24;95.74;98371.84;1804692;78;21092;-59
2022/10/09 04:59:13;;;;;;;17.00;11.35;;;;;;;12.23;95.85;98367.02;1811206;78;21490;-58
2022/10/09 05:01:40;;;;;;;17.70;11.83;;;;;;;12.23;95.89;98375.61;1818516;78;21372;-58
2022/10/09 05:04:07;;;;;;;18.32;12.33;;;;;;;12.21;95.82;98370.54;1824857;78;20916;-59
2022/10/09 05:06:33;;;;;;;18.98;11.93;;;;;;;12.22;95.85;98382.09;1768554;78;20947;-60
2022/10/09 05:09:00;;;;;;;15.55;12.05;;;;;;;12.21;95.92;98385.84;1821714;78;21235;-61
2022/10/09 05:11:27;;;;;;;17.20;12.07;;;;;;;12.19;95.99;98382.12;1821808;78;21449;-61
2022/10/09 05:13:56;;;;;;;15.80;11.10;;;;;;;12.16;96.09;98393.44;1820381;78;20970;-61
2022/10/09 05:16:26;;;;;;;17.77;11.68;;;;;;;12.15;96.22;98402.56;1819796;78;20845;-56
2022/10/09 05:18:56;;;;;;;17.95;12.15;;;;;;;12.17;96.31;98401.77;1820622;77;20932;-59
2022/10/09 05:21:24;;;;;;;18.73;12.30;;;;;;;12.19;96.37;98402.27;1819530;78;21200;-58
2022/10/09 05:23:53;;;;;;;17.57;11.75;;;;;;;12.19;96.33;98396.09;1819845;78;21558;-58
2022/10/09 05:26:21;;;;;;;13.95;11.18;;;;;;;12.19;96.22;98391.52;1829527;78;21496;-58
2022/10/09 05:28:48;;;;;;;18.45;12.00;;;;;;;12.18;96.27;98406.03;1816068;78;20928;-59
2022/10/09 05:31:24;;;;;;;14.30;11.73;;;;;;;12.17;96.38;98403.64;1816094;78;20896;-59
2022/10/09 05:33:52;;;;;;;16.12;11.48;;;;;;;12.14;96.46;98400.98;1823630;78;21210;-59
2022/10/09 05:36:18;;;;;;;16.12;11.08;;;;;;;12.14;96.55;98402.87;1825420;78;20904;-58
2022/10/09 05:38:46;;;;;;;15.55;10.80;;;;;;;12.15;96.72;98405.25;1823554;78;20987;-59
2022/10/09 05:41:14;;;;;;;18.48;11.83;;;;;;;12.16;96.80;98404.72;1827766;78;20920;-60
2022/10/09 05:43:44;;;;;;;16.35;11.75;;;;;;;12.17;96.91;98418.41;1816510;78;20975;-58
2022/10/09 05:46:17;;;;;;;15.20;11.12;;;;;;;12.17;96.99;98415.19;1819985;78;21080;-59
2022/10/09 05:48:46;;;;;;;17.77;11.80;;;;;;;12.18;97.26;98426.70;1827544;78;21497;-59
2022/10/09 05:51:15;;;;;;;17.80;12.03;;;;;;;12.16;97.25;98422.17;1815143;78;20891;-60
2022/10/09 05:53:42;;;;;;;15.35;12.82;;;;;;;12.17;97.58;98425.93;1820919;78;21105;-59
2022/10/09 05:56:19;;;;;;;17.40;12.03;;;;;;;12.16;97.57;98428.34;1815480;78;20960;-59
2022/10/09 05:59:03;;;;;;;15.28;12.00;;;;;;;12.16;97.88;98436.40;1819631;78;21666;-58
2022/10/09 06:01:32;;;;;;;14.45;11.88;;;;;;;12.18;97.95;98435.56;1817502;77;21532;-60
2022/10/09 06:04:01;;;;;;;14.23;11.63;;;;;;;12.21;98.17;98439.02;1820269;77;21455;-59
2022/10/09 06:06:30;;;;;;;16.70;12.10;;;;;;;12.21;98.19;98437.68;1810101;77;20832;-60
2022/10/09 06:08:57;;;;;;;18.37;12.33;;;;;;;12.23;98.33;98435.50;1808380;77;21001;-59
2022/10/09 06:11:30;;;;;;;15.23;11.97;;;;;;;12.27;98.41;98439.77;1823438;78;21345;-60
2022/10/09 06:13:59;;;;;;;16.97;12.13;;;;;;;12.28;98.37;98446.17;1810484;78;21007;-61
2022/10/09 06:16:32;;;;;;;16.67;12.10;;;;;;;12.32;98.47;98445.84;1827200;78;20866;-60
2022/10/09 06:19:00;;;;;;;18.65;12.05;;;;;;;12.39;98.38;98446.04;1817569;78;20853;-59
2022/10/09 06:21:34;;;;;;;13.70;11.95;;;;;;;12.42;98.39;98451.62;1816243;78;20986;-59
2022/10/09 06:24:02;;;;;;;15.75;12.20;;;;;;;12.47;98.32;98453.42;1809353;78;21103;-58
2022/10/09 06:26:30;;;;;;;15.40;11.85;;;;;;;12.50;98.30;98463.60;1827008;78;20900;-59
2022/10/09 06:28:59;;;;;;;15.95;12.33;;;;;;;12.52;98.33;98474.85;1824732;78;20909;-58
2022/10/09 06:31:30;;;;;;;20.45;13.38;;;;;;;12.56;98.31;98479.89;1827472;78;20945;-58
2022/10/09 06:33:59;;;;;;;21.15;12.63;;;;;;;12.57;98.24;98476.94;1820935;78;21437;-60
2022/10/09 06:36:28;;;;;;;16.27;11.75;;;;;;;12.59;98.23;98476.63;1825545;78;21219;-59
2022/10/09 06:38:55;;;;;;;20.30;12.37;;;;;;;12.60;98.02;98485.73;1826080;78;20954;-60
2022/10/09 06:41:24;;;;;;;20.32;13.28;;;;;;;12.57;97.91;98480.96;1790389;78;20903;-61
2022/10/09 06:44:02;;;;;;;19.30;13.55;;;;;;;12.52;98.08;98482.91;1820880;78;21392;-59
2022/10/09 06:46:36;;;;;;;18.87;13.00;;;;;;;12.50;98.09;98490.47;1823308;78;20895;-59
2022/10/09 06:49:03;;;;;;;17.82;13.35;;;;;;;12.54;98.25;98494.16;1822427;78;21286;-59
2022/10/09 06:51:30;;;;;;;16.70;13.30;;;;;;;12.60;98.34;98498.39;1815058;78;20896;-59
2022/10/09 06:53:59;;;;;;;18.48;12.82;;;;;;;12.64;98.34;98499.41;1820027;78;20911;-57
2022/10/09 06:56:28;;;;;;;16.30;12.93;;;;;;;12.74;98.45;98499.27;1813760;78;21469;-58
2022/10/09 06:58:55;;;;;;;19.30;12.43;;;;;;;12.88;98.31;98499.55;1815993;78;21479;-59
2022/10/09 07:01:25;;;;;;;19.17;12.85;;;;;;;12.98;97.74;98498.59;1827895;78;21160;-58
2022/10/09 07:03:58;;;;;;;20.48;13.15;;;;;;;13.02;97.01;98503.09;1816790;78;21029;-58
2022/10/09 07:06:28;;;;;;;19.80;14.40;;;;;;;13.00;96.80;98497.78;1814742;78;20881;-59
2022/10/09 07:09:02;;;;;;;17.30;12.75;;;;;;;12.95;96.03;98511.30;1820190;78;21422;-58
2022/10/09 07:11:34;;;;;;;17.15;12.33;;;;;;;12.87;96.16;98510.07;1817446;78;20884;-58
2022/10/09 07:14:03;;;;;;;18.25;12.07;;;;;;;12.80;96.25;98519.05;1828321;78;21086;-59
2022/10/09 07:16:33;;;;;;;16.95;13.13;;;;;;;12.77;96.62;98525.53;1825933;78;21497;-60
2022/10/09 07:19:02;;;;;;;16.60;12.33;;;;;;;12.72;96.34;98533.67;1821394;78;21022;-59
2022/10/09 07:21:29;;;;;;;17.12;11.15;;;;;;;12.67;96.73;98532.42;1803726;78;21529;-59
2022/10/09 07:23:55;;;;;;;19.57;11.65;;;;;;;12.66;97.03;98542.91;1827818;78;20925;-58
2022/10/09 07:26:25;;;;;;;17.60;11.35;;;;;;;12.64;96.92;98546.43;1765360;78;21493;-60
2022/10/09 07:28:52;;;;;;;17.42;12.03;;;;;;;12.63;97.11;98548.84;1812778;78;20856;-59
2022/10/09 07:31:18;;;;;;;16.90;12.35;;;;;;;12.59;96.95;98544.62;1814258;78;21379;-60
2022/10/09 07:33:47;;;;;;;17.10;11.90;;;;;;;12.58;97.17;98556.98;1821711;78;20975;-58
2022/10/09 07:36:14;;;;;;;15.25;11.90;;;;;;;12.56;97.27;98555.13;1824741;78;21021;-58
2022/10/09 07:38:41;;;;;;;18.15;12.28;;;;;;;12.56;97.40;98559.16;1825103;78;21246;-60
2022/10/09 07:41:10;;;;;;;12.60;11.15;;;;;;;12.56;97.33;98570.71;1820546;78;21015;-61
2022/10/09 07:43:38;;;;;;;14.98;11.20;;;;;;;12.58;97.36;98574.44;1818379;78;20927;-60
2022/10/09 07:46:07;;;;;;;13.53;10.50;;;;;;;12.58;97.12;98571.76;1824839;78;20977;-61
2022/10/09 07:48:34;;;;;;;16.10;11.88;;;;;;;12.58;96.72;98581.16;1822478;78;21526;-58
2022/10/09 07:51:23;;;;;;;15.98;11.05;;;;;;;12.55;96.62;98573.70;1821022;78;21181;-59
2022/10/09 07:53:50;;;;;;;16.37;12.33;;;;;;;12.58;96.75;98586.00;1825637;78;20988;-60
2022/10/09 07:56:19;;;;;;;14.73;10.85;;;;;;;12.59;96.70;98573.38;1826775;78;20959;-59
2022/10/09 07:58:54;;;;;;;17.05;10.20;;;;;;;12.57;96.65;98584.95;1828200;78;20889;-59
2022/10/09 08:01:21;;;;;;;14.70;10.85;;;;;;;12.56;96.83;98592.75;1824630;78;21410;-59
2022/10/09 08:03:48;;;;;;;20.85;11.35;;;;;;;12.52;96.43;98587.70;1814969;78;21093;-58
2022/10/09 08:06:16;;;;;;;14.40;10.48;;;;;;;12.50;96.53;98588.53;1804786;78;21062;-59
2022/10/09 08:08:43;;;;;;;12.63;10.18;;;;;;;12.49;96.57;98590.95;1813472;77;20876;-60
2022/10/09 08:11:13;;;;;;;15.10;10.03;;;;;;;12.46;96.36;98596.92;1809939;78;21458;-61
2022/10/09 08:13:40;;;;;;;14.20;9.60;;;;;;;12.43;96.51;98594.80;1822396;78;20911;-60
2022/10/09 08:16:08;;;;;;;17.67;10.25;;;;;;;12.40;96.60;98596.71;1826807;78;21095;-59
2022/10/09 08:18:36;;;;;;;13.08;9.48;;;;;;;12.36;96.55;98595.94;1825572;78;20975;-59
2022/10/09 08:21:13;;;;;;;13.08;8.98;;;;;;;12.34;96.69;98608.86;1812264;78;20991;-59
2022/10/09 08:23:41;;;;;;;12.43;8.95;;;;;;;12.34;96.95;98606.17;1816655;78;20881;-61
2022/10/09 08:26:16;;;;;;;11.70;9.25;;;;;;;12.34;96.95;98608.86;1823207;78;20876;-58
2022/10/09 08:28:58;;;;;;;13.85;8.93;;;;;;;12.36;96.95;98609.94;1818750;78;21355;-60
2022/10/09 08:31:24;;;;;;;11.45;8.00;;;;;;;12.38;96.59;98613.66;1823001;78;20969;-63
2022/10/09 08:33:57;;;;;;;11.25;7.62;;;;;;;12.37;95.76;98619.58;1804761;78;21371;-64
2022/10/09 08:36:24;;;;;;;11.60;7.83;;;;;;;12.36;95.46;98617.42;1808103;78;20982;-64
2022/10/09 08:38:51;;;;;;;9.43;6.80;;;;;;;12.39;94.51;98622.00;1826861;78;21106;-61
2022/10/09 08:41:35;;;;;;;11.10;7.35;;;;;;;12.39;94.03;98615.28;1804959;78;21671;-60
2022/10/09 08:44:10;;;;;;;9.83;6.22;;;;;;;12.34;93.05;98618.83;1814998;78;20904;-63
2022/10/09 08:47:14;;;;;;;;;;;;;;;12.33;92.85;98621.24;1811020;78;20868;-60
2022/10/09 08:49:54;;;;;;;9.73;6.28;;;;;;;12.34;92.67;98632.26;1804436;77;20657;-61
2022/10/09 08:52:35;;;;;;;10.35;6.80;;;;;;;12.30;92.40;98639.27;1817917;77;20965;-58
2022/10/09 08:55:26;;;;;;;12.85;6.17;;;;;;;12.29;91.94;98638.45;1818869;77;21240;-61
2022/10/09 08:57:55;;;;;;;10.85;5.83;;;;;;;12.31;91.92;98646.25;1806575;77;21400;-65
2022/10/09 09:00:25;;;;;;;11.78;6.30;;;;;;;12.31;92.04;98637.66;1839621;77;21331;-67
2022/10/09 09:03:27;;;;;;;10.48;6.15;;;;;;;12.30;91.97;98637.38;1819403;77;20884;-60
2022/10/09 09:06:20;;;;;;;10.13;6.42;;;;;;;12.33;91.97;98643.54;1825273;77;21029;-65
2022/10/09 09:09:08;;;;;;;10.18;5.10;;;;;;;12.32;91.57;98637.89;1794969;77;49130;-61
2022/10/09 09:11:50;;;;;;;9.73;5.12;;;;;;;12.34;91.47;98645.13;1801448;77;20876;-61
2022/10/09 09:14:50;;;;;;;8.25;5.28;;;;;;;12.36;90.65;98651.00;1813988;77;20951;-58
2022/10/09 09:17:50;;;;;;;6.47;4.42;;;;;;;12.40;89.70;98656.62;1778869;79;20923;-60
2022/10/09 09:20:43;;;;;;;8.35;3.83;;;;;;;12.43;88.33;98659.28;1785261;78;21483;-64
2022/10/09 09:23:13;;;;;;;6.40;3.87;;;;;;;12.43;87.74;98664.66;1798643;78;21238;-61
2022/10/09 09:25:41;;;;;;;5.30;3.40;;;;;;;12.42;86.08;98664.39;1809685;78;20883;-62
2022/10/09 09:28:18;;;;;;;4.92;3.70;;;;;;;12.39;85.37;98658.27;1811309;78;20899;-61
2022/10/09 09:30:48;;;;;;;6.28;4.03;;;;;;;12.39;85.45;98658.27;1807968;78;20946;-64
2022/10/09 09:33:34;;;;;;;6.30;3.85;;;;;;;12.41;84.95;98656.09;1812226;79;21453;-65
2022/10/09 09:36:36;;;;;;;6.78;3.37;;;;;;;12.46;84.94;98664.09;1810680;78;21104;-61
2022/10/09 09:39:03;;;;;;;6.47;3.47;;;;;;;12.51;84.92;98662.13;1797711;77;20944;-61
2022/10/09 09:41:30;;;;;;;7.08;2.87;;;;;;;12.58;83.61;98673.33;1835316;77;20861;-59
2022/10/09 09:43:56;;;;;;;4.80;2.70;;;;;;;12.59;82.47;98678.98;1792446;80;21032;-61
2022/10/09 09:46:27;;;;;;;5.83;2.90;;;;;;;12.60;81.78;98685.94;1762375;81;20972;-63
2022/10/09 09:48:54;;;;;;;3.45;2.85;;;;;;;12.61;79.38;98680.03;1752217;80;21688;-61
2022/10/09 09:51:28;;;;;;;7.33;3.25;;;;;;;12.61;79.08;98680.03;1739739;82;20930;-63
2022/10/09 09:54:07;;;;;;;4.58;3.00;;;;;;;12.59;78.45;98684.89;1742601;82;20993;-62
2022/10/09 09:56:40;;;;;;;9.03;3.20;;;;;;;12.59;79.37;98675.48;1729516;81;22513;-62
2022/10/09 09:59:28;;;;;;;3.80;2.80;;;;;;;12.61;78.89;98673.30;1755133;81;21092;-61
2022/10/09 10:02:14;;;;;;;5.47;2.83;;;;;;;12.63;78.72;98680.53;1797554;79;21228;-60
2022/10/09 10:04:56;;;;;;;6.00;3.00;;;;;;;12.64;78.91;98682.15;1724905;82;21072;-61
2022/10/09 10:07:36;;;;;;;6.37;3.10;;;;;;;12.66;78.65;98675.94;1803608;79;20917;-63
2022/10/09 10:10:17;;;;;;;7.17;3.20;;;;;;;12.78;79.37;98674.98;1803883;78;20854;-62
2022/10/09 10:12:57;;;;;;;6.10;3.35;;;;;;;12.95;78.13;98668.59;1808117;78;21050;-62
2022/10/09 10:15:28;;;;;;;7.75;3.10;;;;;;;13.15;77.99;98667.00;1817452;77;22057;-61
2022/10/09 10:18:04;;;;;;;4.95;2.83;;;;;;;13.35;77.96;98667.27;1823563;77;21521;-64
2022/10/09 10:20:35;;;;;;;8.60;2.67;;;;;;;13.46;77.29;98670.86;1833805;77;20872;-65
2022/10/09 10:23:02;;;;;;;9.38;2.60;;;;;;;13.53;75.78;98668.59;1820905;77;20951;-63
2022/10/09 10:25:32;;;;;;;5.33;2.62;;;;;;;13.61;75.46;98662.52;1813552;77;20881;-61
2022/10/09 10:28:12;;;;;;;5.05;2.42;;;;;;;13.73;73.73;98676.33;1803553;78;21212;-61
2022/10/09 10:30:38;;;;;;;7.80;2.47;;;;;;;13.77;72.40;98668.48;1799147;79;21423;-64
2022/10/09 10:33:13;;;;;;;4.80;2.30;;;;;;;13.81;70.97;98668.68;1799662;79;20932;-64
2022/10/09 10:35:41;;;;;;;6.20;2.70;;;;;;;13.78;70.15;98676.80;1784693;78;20939;-62
2022/10/09 10:38:30;;;;;;;5.40;2.70;;;;;;;13.76;69.91;98676.84;1790697;78;20943;-63
2022/10/09 10:41:29;;;;;;;4.35;2.77;;;;;;;13.66;69.17;98678.60;1804212;77;21458;-63
2022/10/09 10:44:05;;;;;;;5.30;2.52;;;;;;;13.61;68.38;98680.02;1801749;78;20974;-61
2022/10/09 10:46:47;;;;;;;7.20;2.67;;;;;;;13.62;68.48;98674.91;1793406;78;21094;-61
2022/10/09 10:49:12;;;;;;;5.90;2.20;;;;;;;13.61;68.77;98679.25;1795213;78;21015;-63
2022/10/09 10:52:13;;;;;;;4.87;2.27;;;;;;;13.61;67.71;98687.33;1784173;78;21352;-60
2022/10/09 10:54:58;;;;;;;4.65;1.82;;;;;;;13.60;67.91;98681.13;1783544;79;21251;-63
2022/10/09 10:57:42;;;;;;;5.10;2.00;;;;;;;13.63;66.00;98683.78;1794394;77;20903;-64
2022/10/09 11:00:11;;;;;;;4.10;1.83;;;;;;;13.63;66.47;98685.13;1810551;77;21565;-63
2022/10/09 11:03:20;;;;;;;9.15;2.15;;;;;;;13.61;66.51;98677.33;1799999;77;21004;-60
2022/10/09 11:05:55;;;;;;;5.03;2.58;;;;;;;13.60;67.16;98683.02;1781226;78;21090;-63
2022/10/09 11:08:42;;;;;;;8.20;2.77;;;;;;;13.57;67.88;98681.70;1773628;79;21419;-65
2022/10/09 11:11:24;;;;;;;4.95;1.95;;;;;;;13.58;68.98;98680.63;1774784;80;20933;-65
2022/10/09 11:14:23;;;;;;;6.50;2.62;;;;;;;13.70;68.85;98676.14;1775859;79;21549;-61
2022/10/09 11:17:32;;;;;;;4.42;2.00;;;;;;;13.87;68.40;98682.33;1773289;80;21003;-64
2022/10/09 11:20:13;;;;;;;3.83;1.92;;;;;;;14.02;67.98;98687.44;1777558;79;21435;-61
2022/10/09 11:22:59;;;;;;;4.47;2.17;;;;;;;14.28;67.39;98679.97;1775930;79;21224;-61
2022/10/09 11:25:43;;;;;;;11.15;2.30;;;;;;;14.56;65.51;98672.73;1751816;80;20972;-64
2022/10/09 11:28:14;;;;;;;4.62;1.92;;;;;;;14.70;63.02;98678.92;1769555;80;20860;-64
2022/10/09 11:31:11;;;;;;;5.47;2.10;;;;;;;14.65;63.41;98687.11;1778820;79;21060;-60
2022/10/09 11:33:43;;;;;;;5.65;1.98;;;;;;;14.53;64.92;98681.41;1785775;77;20928;-61
2022/10/09 11:36:15;;;;;;;7.00;1.85;;;;;;;14.48;64.65;98682.88;1771287;80;21355;-61
2022/10/09 11:38:52;;;;;;;7.05;2.30;;;;;;;14.37;64.54;98688.19;1772172;80;20992;-65
2022/10/09 11:41:19;;;;;;;4.83;2.00;;;;;;;14.29;65.12;98687.52;1792060;77;20915;-61
2022/10/09 11:44:00;;;;;;;9.65;2.40;;;;;;;14.19;65.74;98676.91;1797499;78;20918;-62
2022/10/09 11:46:41;;;;;;;3.47;1.80;;;;;;;14.16;65.36;98670.77;1787305;77;20995;-64
2022/10/09 11:49:26;;;;;;;10.32;2.17;;;;;;;14.20;64.06;98668.52;1801512;77;21292;-65